sensor_id;sensor_type;location;lat;lon;timestamp;pressure;altitude;pressure_sealevel;temperature;humidity
68474;BME280;55461;52.066;5.194;2023-02-04T00:00:00;103229.0;;;8.42;87.36
68474;BME280;55461;52.066;5.194;2023-02-04T00:01:37;103225.0;;;8.32;87.64
68474;BME280;55461;52.066;5.194;2023-02-04T00:03:14;103227.0;;;8.27;88.3
68474;BME280;55461;52.066;5.194;2023-02-04T00:04:50;103226.0;;;8.22;88.47
68474;BME280;55461;52.066;5.194;2023-02-04T00:08:04;103228.0;;;8.19;88.7
68474;BME280;55461;52.066;5.194;2023-02-04T00:09:40;103232.0;;;8.2;88.77
68474;BME280;55461;52.066;5.194;2023-02-04T00:11:16;103234.99999999999;;;8.14;89.17
68474;BME280;55461;52.066;5.194;2023-02-04T00:14:28;103231.0;;;8.07;89.58
68474;BME280;55461;52.066;5.194;2023-02-04T00:16:05;103239.00000000001;;;8.03;89.69
68474;BME280;55461;52.066;5.194;2023-02-04T00:17:41;103234.99999999999;;;7.98;90.37
68474;BME280;55461;52.066;5.194;2023-02-04T00:20:54;103238.00000000001;;;7.95;90.67
68474;BME280;55461;52.066;5.194;2023-02-04T00:22:30;103233.0;;;8.06;90.71
68474;BME280;55461;52.066;5.194;2023-02-04T00:24:06;103240.00000000001;;;8.01;90.72
68474;BME280;55461;52.066;5.194;2023-02-04T00:25:42;103243.0;;;8.01;91.01
68474;BME280;55461;52.066;5.194;2023-02-04T00:28:55;103242.0;;;8.06;91.06
68474;BME280;55461;52.066;5.194;2023-02-04T00:30:31;103242.0;;;7.97;91.68
68474;BME280;55461;52.066;5.194;2023-02-04T00:32:08;103241.00000000001;;;7.94;91.94
68474;BME280;55461;52.066;5.194;2023-02-04T00:35:21;103236.99999999999;;;7.96;92.04
68474;BME280;55461;52.066;5.194;2023-02-04T00:36:57;103245.0;;;8.06;91.34
68474;BME280;55461;52.066;5.194;2023-02-04T00:38:33;103245.0;;;7.81;93.12
68474;BME280;55461;52.066;5.194;2023-02-04T00:41:47;103248.0;;;7.89;92.57
68474;BME280;55461;52.066;5.194;2023-02-04T00:43:23;103249.0;;;7.94;92.54
68474;BME280;55461;52.066;5.194;2023-02-04T00:44:59;103253.0;;;7.91;92.48
68474;BME280;55461;52.066;5.194;2023-02-04T00:48:11;103259.99999999999;;;7.87;92.87
68474;BME280;55461;52.066;5.194;2023-02-04T00:49:47;103254.0;;;7.79;93.35
68474;BME280;55461;52.066;5.194;2023-02-04T00:51:24;103258.99999999999;;;7.79;93.67
68474;BME280;55461;52.066;5.194;2023-02-04T00:53:01;103258.99999999999;;;7.84;93.91
68474;BME280;55461;52.066;5.194;2023-02-04T00:56:13;103267.0;;;7.77;94.2
68474;BME280;55461;52.066;5.194;2023-02-04T00:57:50;103272.0;;;7.77;94.29
68474;BME280;55461;52.066;5.194;2023-02-04T00:59:26;103272.0;;;7.75;94.79
68474;BME280;55461;52.066;5.194;2023-02-04T01:02:40;103275.0;;;7.89;94.2
68474;BME280;55461;52.066;5.194;2023-02-04T01:04:16;103274.0;;;7.95;94.17
68474;BME280;55461;52.066;5.194;2023-02-04T01:05:53;103273.0;;;7.8;94.9
68474;BME280;55461;52.066;5.194;2023-02-04T01:09:05;103267.0;;;7.81;95.14
68474;BME280;55461;52.066;5.194;2023-02-04T01:10:41;103276.0;;;7.78;95.82
68474;BME280;55461;52.066;5.194;2023-02-04T01:12:18;103274.0;;;7.79;96.14
68474;BME280;55461;52.066;5.194;2023-02-04T01:13:54;103279.0;;;7.79;95.86
68474;BME280;55461;52.066;5.194;2023-02-04T01:17:06;103286.99999999999;;;7.73;96.71
68474;BME280;55461;52.066;5.194;2023-02-04T01:18:42;103290.00000000001;;;7.72;97.32
68474;BME280;55461;52.066;5.194;2023-02-04T01:20:19;103293.0;;;7.8;96.82
68474;BME280;55461;52.066;5.194;2023-02-04T01:23:32;103293.0;;;7.62;98.17
68474;BME280;55461;52.066;5.194;2023-02-04T01:25:08;103302.0;;;7.68;98.04
68474;BME280;55461;52.066;5.194;2023-02-04T01:26:44;103303.0;;;7.81;97.52
68474;BME280;55461;52.066;5.194;2023-02-04T01:29:56;103299.0;;;7.71;98.12
68474;BME280;55461;52.066;5.194;2023-02-04T01:31:33;103305.0;;;7.73;98.14
68474;BME280;55461;52.066;5.194;2023-02-04T01:33:10;103301.0;;;7.53;99.89
68474;BME280;55461;52.066;5.194;2023-02-04T01:34:46;103305.0;;;7.55;100.0
68474;BME280;55461;52.066;5.194;2023-02-04T01:37:58;103309.99999999999;;;7.47;100.0
68474;BME280;55461;52.066;5.194;2023-02-04T01:39:35;103314.00000000001;;;7.47;100.0
68474;BME280;55461;52.066;5.194;2023-02-04T01:41:13;103323.0;;;7.52;100.0
68474;BME280;55461;52.066;5.194;2023-02-04T01:44:27;103326.0;;;7.6;100.0
68474;BME280;55461;52.066;5.194;2023-02-04T01:46:04;103322.0;;;7.48;100.0
68474;BME280;55461;52.066;5.194;2023-02-04T01:47:41;103324.0;;;7.54;100.0
68474;BME280;55461;52.066;5.194;2023-02-04T01:51:04;103325.0;;;7.59;100.0
68474;BME280;55461;52.066;5.194;2023-02-04T01:52:42;103329.0;;;7.56;100.0
68474;BME280;55461;52.066;5.194;2023-02-04T01:54:20;103329.0;;;7.61;100.0
68474;BME280;55461;52.066;5.194;2023-02-04T01:55:57;103330.0;;;7.53;100.0
68474;BME280;55461;52.066;5.194;2023-02-04T01:59:12;103328.0;;;7.43;100.0
68474;BME280;55461;52.066;5.194;2023-02-04T02:00:50;103338.00000000001;;;7.6;100.0
68474;BME280;55461;52.066;5.194;2023-02-04T02:02:45;103331.0;;;7.68;100.0
68474;BME280;55461;52.066;5.194;2023-02-04T02:04:27;103331.0;;;7.73;100.0
68474;BME280;55461;52.066;5.194;2023-02-04T02:07:45;103333.0;;;7.75;100.0
68474;BME280;55461;52.066;5.194;2023-02-04T02:09:21;103343.0;;;7.73;100.0
68474;BME280;55461;52.066;5.194;2023-02-04T02:10:58;103344.0;;;7.8;100.0
68474;BME280;55461;52.066;5.194;2023-02-04T02:12:34;103344.0;;;7.78;100.0
68474;BME280;55461;52.066;5.194;2023-02-04T02:15:48;103344.0;;;7.77;100.0
68474;BME280;55461;52.066;5.194;2023-02-04T02:17:24;103342.0;;;7.73;99.86
68474;BME280;55461;52.066;5.194;2023-02-04T02:19:01;103346.0;;;7.65;100.0
68474;BME280;55461;52.066;5.194;2023-02-04T02:22:22;103346.0;;;7.79;100.0
68474;BME280;55461;52.066;5.194;2023-02-04T02:24:23;103353.0;;;7.76;99.99
68474;BME280;55461;52.066;5.194;2023-02-04T02:26:01;103351.0;;;7.76;100.0
68474;BME280;55461;52.066;5.194;2023-02-04T02:27:37;103352.0;;;7.78;100.0
68474;BME280;55461;52.066;5.194;2023-02-04T02:29:14;103354.0;;;7.92;99.32
68474;BME280;55461;52.066;5.194;2023-02-04T02:32:27;103351.0;;;7.75;100.0
68474;BME280;55461;52.066;5.194;2023-02-04T02:34:03;103353.0;;;7.96;99.57
68474;BME280;55461;52.066;5.194;2023-02-04T02:35:43;103354.0;;;7.86;99.43
68474;BME280;55461;52.066;5.194;2023-02-04T02:38:59;103352.0;;;7.85;99.43
68474;BME280;55461;52.066;5.194;2023-02-04T02:40:35;103347.0;;;7.97;98.98
68474;BME280;55461;52.066;5.194;2023-02-04T02:42:14;103350.0;;;7.96;98.91
68474;BME280;55461;52.066;5.194;2023-02-04T02:43:51;103346.0;;;7.84;99.73
68474;BME280;55461;52.066;5.194;2023-02-04T02:47:11;103348.0;;;7.88;99.27
68474;BME280;55461;52.066;5.194;2023-02-04T02:48:49;103350.0;;;7.8;99.5
68474;BME280;55461;52.066;5.194;2023-02-04T02:50:26;103356.0;;;7.8;99.72
68474;BME280;55461;52.066;5.194;2023-02-04T02:53:40;103352.0;;;7.82;99.58
68474;BME280;55461;52.066;5.194;2023-02-04T02:55:19;103354.0;;;8.0;98.86
68474;BME280;55461;52.066;5.194;2023-02-04T02:56:56;103361.99999999999;;;7.84;99.32
68474;BME280;55461;52.066;5.194;2023-02-04T02:58:34;103353.0;;;7.77;99.49
68474;BME280;55461;52.066;5.194;2023-02-04T03:01:54;103358.0;;;7.88;99.01
68474;BME280;55461;52.066;5.194;2023-02-04T03:03:34;103357.0;;;7.99;98.46
68474;BME280;55461;52.066;5.194;2023-02-04T03:05:13;103357.0;;;7.97;98.29
68474;BME280;55461;52.066;5.194;2023-02-04T03:06:49;103363.00000000001;;;8.1;97.71
68474;BME280;55461;52.066;5.194;2023-02-04T03:10:04;103363.00000000001;;;8.05;97.69
68474;BME280;55461;52.066;5.194;2023-02-04T03:11:40;103367.0;;;8.03;98.27
68474;BME280;55461;52.066;5.194;2023-02-04T03:13:17;103366.00000000001;;;7.97;98.1
68474;BME280;55461;52.066;5.194;2023-02-04T03:16:33;103366.00000000001;;;8.06;97.5
68474;BME280;55461;52.066;5.194;2023-02-04T03:18:11;103358.99999999999;;;7.95;97.62
68474;BME280;55461;52.066;5.194;2023-02-04T03:19:48;103359.99999999999;;;7.86;98.44
68474;BME280;55461;52.066;5.194;2023-02-04T03:23:01;103358.0;;;7.98;97.96
68474;BME280;55461;52.066;5.194;2023-02-04T03:24:37;103358.0;;;7.89;98.15
68474;BME280;55461;52.066;5.194;2023-02-04T03:26:14;103358.99999999999;;;7.95;97.87
68474;BME280;55461;52.066;5.194;2023-02-04T03:27:50;103356.0;;;8.01;97.45
68474;BME280;55461;52.066;5.194;2023-02-04T03:31:04;103356.0;;;7.86;97.72
68474;BME280;55461;52.066;5.194;2023-02-04T03:32:40;103358.0;;;7.75;98.03
68474;BME280;55461;52.066;5.194;2023-02-04T03:34:16;103363.00000000001;;;7.77;98.23
68474;BME280;55461;52.066;5.194;2023-02-04T03:37:30;103364.00000000001;;;7.65;98.58
68474;BME280;55461;52.066;5.194;2023-02-04T03:39:06;103368.0;;;7.7;98.0
68474;BME280;55461;52.066;5.194;2023-02-04T03:40:43;103370.0;;;7.56;98.51
68474;BME280;55461;52.066;5.194;2023-02-04T03:43:56;103367.0;;;7.36;99.44
68474;BME280;55461;52.066;5.194;2023-02-04T03:45:33;103366.00000000001;;;7.28;99.85
68474;BME280;55461;52.066;5.194;2023-02-04T03:47:09;103366.00000000001;;;7.57;98.63
68474;BME280;55461;52.066;5.194;2023-02-04T03:48:45;103364.00000000001;;;7.3;99.83
68474;BME280;55461;52.066;5.194;2023-02-04T03:51:57;103367.0;;;7.28;100.0
68474;BME280;55461;52.066;5.194;2023-02-04T03:53:34;103368.0;;;7.23;100.0
68474;BME280;55461;52.066;5.194;2023-02-04T03:55:10;103369.0;;;7.28;100.0
68474;BME280;55461;52.066;5.194;2023-02-04T03:58:22;103375.0;;;7.16;100.0
68474;BME280;55461;52.066;5.194;2023-02-04T03:59:58;103374.0;;;7.23;99.85
68474;BME280;55461;52.066;5.194;2023-02-04T04:01:35;103376.0;;;7.14;99.86
68474;BME280;55461;52.066;5.194;2023-02-04T04:04:47;103380.0;;;7.15;99.87
68474;BME280;55461;52.066;5.194;2023-02-04T04:06:23;103386.99999999999;;;6.94;100.0
68474;BME280;55461;52.066;5.194;2023-02-04T04:08:00;103383.99999999999;;;6.97;100.0
68474;BME280;55461;52.066;5.194;2023-02-04T04:09:36;103386.99999999999;;;6.9;100.0
68474;BME280;55461;52.066;5.194;2023-02-04T04:12:50;103390.00000000001;;;6.94;99.85
68474;BME280;55461;52.066;5.194;2023-02-04T04:14:26;103388.00000000001;;;6.82;100.0
68474;BME280;55461;52.066;5.194;2023-02-04T04:16:03;103383.99999999999;;;6.86;100.0
68474;BME280;55461;52.066;5.194;2023-02-04T04:19:15;103386.99999999999;;;6.91;100.0
68474;BME280;55461;52.066;5.194;2023-02-04T04:20:51;103383.0;;;6.85;100.0
68474;BME280;55461;52.066;5.194;2023-02-04T04:22:28;103388.00000000001;;;6.64;100.0
68474;BME280;55461;52.066;5.194;2023-02-04T04:25:41;103382.0;;;6.72;100.0
68474;BME280;55461;52.066;5.194;2023-02-04T04:27:17;103384.99999999999;;;6.66;100.0
68474;BME280;55461;52.066;5.194;2023-02-04T04:28:53;103389.00000000001;;;6.67;100.0
68474;BME280;55461;52.066;5.194;2023-02-04T04:30:29;103392.0;;;6.77;100.0
68474;BME280;55461;52.066;5.194;2023-02-04T04:33:42;103394.0;;;6.82;100.0
68474;BME280;55461;52.066;5.194;2023-02-04T04:35:18;103392.0;;;6.82;100.0
68474;BME280;55461;52.066;5.194;2023-02-04T04:36:54;103386.99999999999;;;6.92;100.0
68474;BME280;55461;52.066;5.194;2023-02-04T04:40:10;103392.0;;;6.97;100.0
68474;BME280;55461;52.066;5.194;2023-02-04T04:41:47;103392.0;;;6.89;100.0
68474;BME280;55461;52.066;5.194;2023-02-04T04:43:23;103396.0;;;6.99;100.0
68474;BME280;55461;52.066;5.194;2023-02-04T04:46:35;103399.0;;;7.02;100.0
68474;BME280;55461;52.066;5.194;2023-02-04T04:48:11;103395.0;;;6.92;100.0
68474;BME280;55461;52.066;5.194;2023-02-04T04:49:47;103400.0;;;6.74;100.0
68474;BME280;55461;52.066;5.194;2023-02-04T04:51:24;103396.0;;;6.73;100.0
68474;BME280;55461;52.066;5.194;2023-02-04T04:54:36;103389.00000000001;;;6.73;100.0
68474;BME280;55461;52.066;5.194;2023-02-04T04:56:12;103391.00000000001;;;6.61;100.0
68474;BME280;55461;52.066;5.194;2023-02-04T04:57:48;103397.0;;;6.65;100.0
68474;BME280;55461;52.066;5.194;2023-02-04T05:01:01;103395.0;;;6.68;100.0
68474;BME280;55461;52.066;5.194;2023-02-04T05:02:37;103401.0;;;6.71;100.0
68474;BME280;55461;52.066;5.194;2023-02-04T05:04:13;103404.0;;;6.8;100.0
68474;BME280;55461;52.066;5.194;2023-02-04T05:07:26;103402.0;;;6.73;100.0
68474;BME280;55461;52.066;5.194;2023-02-04T05:09:03;103401.0;;;6.81;100.0
68474;BME280;55461;52.066;5.194;2023-02-04T05:10:40;103401.0;;;6.81;100.0
68474;BME280;55461;52.066;5.194;2023-02-04T05:13:53;103403.0;;;6.84;100.0
68474;BME280;55461;52.066;5.194;2023-02-04T05:15:29;103407.0;;;6.76;100.0
68474;BME280;55461;52.066;5.194;2023-02-04T05:17:05;103408.0;;;6.74;100.0
68474;BME280;55461;52.066;5.194;2023-02-04T05:18:43;103406.0;;;6.71;100.0
68474;BME280;55461;52.066;5.194;2023-02-04T05:21:56;103407.0;;;6.69;100.0
68474;BME280;55461;52.066;5.194;2023-02-04T05:23:33;103408.0;;;6.69;100.0
68474;BME280;55461;52.066;5.194;2023-02-04T05:25:10;103406.0;;;6.67;100.0
68474;BME280;55461;52.066;5.194;2023-02-04T05:28:22;103402.0;;;6.7;100.0
68474;BME280;55461;52.066;5.194;2023-02-04T05:29:58;103396.0;;;6.65;100.0
68474;BME280;55461;52.066;5.194;2023-02-04T05:31:35;103397.0;;;6.69;100.0
68474;BME280;55461;52.066;5.194;2023-02-04T05:34:47;103398.0;;;6.69;100.0
68474;BME280;55461;52.066;5.194;2023-02-04T05:36:23;103408.99999999999;;;6.71;100.0
68474;BME280;55461;52.066;5.194;2023-02-04T05:37:59;103414.00000000001;;;6.75;100.0
68474;BME280;55461;52.066;5.194;2023-02-04T05:39:35;103417.0;;;6.81;100.0
68474;BME280;55461;52.066;5.194;2023-02-04T05:42:48;103417.0;;;6.95;100.0
68474;BME280;55461;52.066;5.194;2023-02-04T05:44:24;103419.0;;;6.91;100.0
68474;BME280;55461;52.066;5.194;2023-02-04T05:46:00;103426.0;;;6.87;100.0
68474;BME280;55461;52.066;5.194;2023-02-04T05:49:15;103429.0;;;6.97;100.0
68474;BME280;55461;52.066;5.194;2023-02-04T05:50:51;103433.99999999999;;;6.95;100.0
68474;BME280;55461;52.066;5.194;2023-02-04T05:52:27;103439.00000000001;;;6.95;100.0
68474;BME280;55461;52.066;5.194;2023-02-04T05:55:39;103439.00000000001;;;6.82;100.0
68474;BME280;55461;52.066;5.194;2023-02-04T05:57:16;103448.0;;;6.88;100.0
68474;BME280;55461;52.066;5.194;2023-02-04T05:58:52;103449.0;;;6.94;100.0
68474;BME280;55461;52.066;5.194;2023-02-04T06:00:28;103444.0;;;6.89;100.0
68474;BME280;55461;52.066;5.194;2023-02-04T06:03:42;103448.0;;;6.78;100.0
68474;BME280;55461;52.066;5.194;2023-02-04T06:05:18;103448.0;;;6.87;100.0
68474;BME280;55461;52.066;5.194;2023-02-04T06:06:54;103449.0;;;6.82;100.0
68474;BME280;55461;52.066;5.194;2023-02-04T06:10:08;103448.0;;;6.72;100.0
68474;BME280;55461;52.066;5.194;2023-02-04T06:11:45;103448.0;;;6.76;100.0
68474;BME280;55461;52.066;5.194;2023-02-04T06:13:21;103449.0;;;6.74;100.0
68474;BME280;55461;52.066;5.194;2023-02-04T06:16:34;103452.0;;;6.73;100.0
68474;BME280;55461;52.066;5.194;2023-02-04T06:18:10;103453.0;;;6.79;100.0
68474;BME280;55461;52.066;5.194;2023-02-04T06:19:46;103458.99999999999;;;6.82;100.0
68474;BME280;55461;52.066;5.194;2023-02-04T06:21:22;103456.0;;;6.89;100.0
68474;BME280;55461;52.066;5.194;2023-02-04T06:24:35;103464.00000000001;;;6.91;100.0
68474;BME280;55461;52.066;5.194;2023-02-04T06:26:12;103472.0;;;6.88;100.0
68474;BME280;55461;52.066;5.194;2023-02-04T06:27:49;103478.0;;;6.87;100.0
68474;BME280;55461;52.066;5.194;2023-02-04T06:31:02;103482.0;;;6.93;100.0
68474;BME280;55461;52.066;5.194;2023-02-04T06:32:39;103489.00000000001;;;7.03;100.0
68474;BME280;55461;52.066;5.194;2023-02-04T06:34:15;103492.0;;;6.82;100.0
68474;BME280;55461;52.066;5.194;2023-02-04T06:37:29;103492.0;;;6.84;100.0
68474;BME280;55461;52.066;5.194;2023-02-04T06:39:05;103500.0;;;6.87;100.0
68474;BME280;55461;52.066;5.194;2023-02-04T06:40:42;103499.0;;;7.0;100.0
68474;BME280;55461;52.066;5.194;2023-02-04T06:42:18;103496.0;;;6.96;100.0
68474;BME280;55461;52.066;5.194;2023-02-04T06:45:30;103498.0;;;6.91;100.0
68474;BME280;55461;52.066;5.194;2023-02-04T06:47:06;103502.0;;;6.79;100.0
68474;BME280;55461;52.066;5.194;2023-02-04T06:48:42;103503.0;;;6.87;100.0
68474;BME280;55461;52.066;5.194;2023-02-04T06:51:54;103513.00000000001;;;6.83;100.0
68474;BME280;55461;52.066;5.194;2023-02-04T06:53:30;103514.00000000001;;;6.86;100.0
68474;BME280;55461;52.066;5.194;2023-02-04T06:55:06;103513.00000000001;;;6.78;100.0
68474;BME280;55461;52.066;5.194;2023-02-04T06:58:18;103517.0;;;6.73;100.0
68474;BME280;55461;52.066;5.194;2023-02-04T06:59:54;103514.00000000001;;;6.67;100.0
68474;BME280;55461;52.066;5.194;2023-02-04T07:01:30;103517.0;;;6.69;100.0
68474;BME280;55461;52.066;5.194;2023-02-04T07:04:43;103524.0;;;6.65;100.0
68474;BME280;55461;52.066;5.194;2023-02-04T07:06:18;103527.0;;;6.6;100.0
68474;BME280;55461;52.066;5.194;2023-02-04T07:07:54;103526.0;;;6.64;100.0
68474;BME280;55461;52.066;5.194;2023-02-04T07:09:31;103526.0;;;6.67;100.0
68474;BME280;55461;52.066;5.194;2023-02-04T07:14:18;103524.0;;;6.66;100.0
68474;BME280;55461;52.066;5.194;2023-02-04T07:15:54;103524.0;;;6.67;100.0
68474;BME280;55461;52.066;5.194;2023-02-04T07:19:07;103521.0;;;6.65;100.0
68474;BME280;55461;52.066;5.194;2023-02-04T07:20:43;103525.0;;;6.66;100.0
68474;BME280;55461;52.066;5.194;2023-02-04T07:22:19;103524.0;;;6.71;100.0
68474;BME280;55461;52.066;5.194;2023-02-04T07:25:32;103522.0;;;6.72;100.0
68474;BME280;55461;52.066;5.194;2023-02-04T07:27:08;103528.0;;;6.75;100.0
68474;BME280;55461;52.066;5.194;2023-02-04T07:28:44;103526.0;;;6.73;100.0
68474;BME280;55461;52.066;5.194;2023-02-04T07:31:56;103529.0;;;6.72;100.0
68474;BME280;55461;52.066;5.194;2023-02-04T07:33:31;103533.0;;;6.71;100.0
68474;BME280;55461;52.066;5.194;2023-02-04T07:35:08;103534.99999999999;;;6.66;100.0
68474;BME280;55461;52.066;5.194;2023-02-04T07:36:46;103536.99999999999;;;6.65;100.0
68474;BME280;55461;52.066;5.194;2023-02-04T07:39:58;103543.0;;;6.7;100.0
68474;BME280;55461;52.066;5.194;2023-02-04T07:41:35;103544.0;;;6.74;100.0
68474;BME280;55461;52.066;5.194;2023-02-04T07:43:11;103546.0;;;6.76;100.0
68474;BME280;55461;52.066;5.194;2023-02-04T07:46:22;103552.0;;;6.78;100.0
68474;BME280;55461;52.066;5.194;2023-02-04T07:47:58;103553.0;;;6.78;100.0
68474;BME280;55461;52.066;5.194;2023-02-04T07:49:33;103556.0;;;6.81;100.0
68474;BME280;55461;52.066;5.194;2023-02-04T07:52:45;103558.99999999999;;;6.83;100.0
68474;BME280;55461;52.066;5.194;2023-02-04T07:54:21;103565.00000000001;;;6.92;100.0
68474;BME280;55461;52.066;5.194;2023-02-04T07:55:56;103567.0;;;7.02;100.0
68474;BME280;55461;52.066;5.194;2023-02-04T07:59:09;103569.0;;;7.04;100.0
68474;BME280;55461;52.066;5.194;2023-02-04T08:00:45;103569.0;;;7.04;100.0
68474;BME280;55461;52.066;5.194;2023-02-04T08:02:21;103578.0;;;7.1;100.0
68474;BME280;55461;52.066;5.194;2023-02-04T08:03:58;103581.0;;;7.11;100.0
68474;BME280;55461;52.066;5.194;2023-02-04T08:07:10;103575.0;;;7.04;100.0
68474;BME280;55461;52.066;5.194;2023-02-04T08:08:46;103583.0;;;7.08;100.0
68474;BME280;55461;52.066;5.194;2023-02-04T08:10:22;103576.0;;;7.03;100.0
68474;BME280;55461;52.066;5.194;2023-02-04T08:13:35;103581.0;;;7.04;100.0
68474;BME280;55461;52.066;5.194;2023-02-04T08:15:12;103582.0;;;7.1;100.0
68474;BME280;55461;52.066;5.194;2023-02-04T08:16:48;103583.99999999999;;;7.11;100.0
68474;BME280;55461;52.066;5.194;2023-02-04T08:20:00;103589.00000000001;;;7.12;100.0
68474;BME280;55461;52.066;5.194;2023-02-04T08:21:36;103590.00000000001;;;7.14;100.0
68474;BME280;55461;52.066;5.194;2023-02-04T08:23:12;103598.0;;;7.2;100.0
68474;BME280;55461;52.066;5.194;2023-02-04T08:24:48;103603.0;;;7.19;100.0
68474;BME280;55461;52.066;5.194;2023-02-04T08:28:01;103599.0;;;7.22;100.0
68474;BME280;55461;52.066;5.194;2023-02-04T08:29:38;103602.0;;;7.26;100.0
68474;BME280;55461;52.066;5.194;2023-02-04T08:31:14;103605.0;;;7.31;100.0
68474;BME280;55461;52.066;5.194;2023-02-04T08:34:26;103603.0;;;7.33;100.0
68474;BME280;55461;52.066;5.194;2023-02-04T08:36:03;103603.0;;;7.41;100.0
68474;BME280;55461;52.066;5.194;2023-02-04T08:37:40;103605.0;;;7.44;100.0
68474;BME280;55461;52.066;5.194;2023-02-04T08:40:52;103609.99999999999;;;7.46;100.0
68474;BME280;55461;52.066;5.194;2023-02-04T08:44:05;103611.99999999999;;;7.51;100.0
68474;BME280;55461;52.066;5.194;2023-02-04T08:45:41;103611.99999999999;;;7.57;100.0
68474;BME280;55461;52.066;5.194;2023-02-04T08:48:54;103609.99999999999;;;7.56;100.0
68474;BME280;55461;52.066;5.194;2023-02-04T08:50:31;103614.00000000001;;;7.73;100.0
68474;BME280;55461;52.066;5.194;2023-02-04T08:52:07;103615.00000000001;;;7.85;100.0
68474;BME280;55461;52.066;5.194;2023-02-04T08:55:20;103621.0;;;7.96;100.0
68474;BME280;55461;52.066;5.194;2023-02-04T08:56:56;103618.0;;;8.09;100.0
68474;BME280;55461;52.066;5.194;2023-02-04T08:58:33;103625.0;;;8.0;100.0
68474;BME280;55461;52.066;5.194;2023-02-04T09:01:48;103623.0;;;7.95;100.0
68474;BME280;55461;52.066;5.194;2023-02-04T09:03:25;103628.0;;;8.16;100.0
68474;BME280;55461;52.066;5.194;2023-02-04T09:05:01;103629.0;;;8.15;100.0
68474;BME280;55461;52.066;5.194;2023-02-04T09:06:37;103628.0;;;8.17;100.0
68474;BME280;55461;52.066;5.194;2023-02-04T09:09:50;103629.0;;;8.08;100.0
68474;BME280;55461;52.066;5.194;2023-02-04T09:11:26;103629.0;;;8.06;100.0
68474;BME280;55461;52.066;5.194;2023-02-04T09:13:03;103627.0;;;8.08;100.0
68474;BME280;55461;52.066;5.194;2023-02-04T09:16:17;103636.99999999999;;;7.97;100.0
68474;BME280;55461;52.066;5.194;2023-02-04T09:18:00;103631.0;;;8.06;100.0
68474;BME280;55461;52.066;5.194;2023-02-04T09:19:36;103631.0;;;8.16;100.0
68474;BME280;55461;52.066;5.194;2023-02-04T09:22:49;103632.0;;;8.48;99.55
68474;BME280;55461;52.066;5.194;2023-02-04T09:24:25;103630.0;;;8.33;99.21
68474;BME280;55461;52.066;5.194;2023-02-04T09:26:03;103633.99999999999;;;8.39;99.84
68474;BME280;55461;52.066;5.194;2023-02-04T09:27:40;103636.99999999999;;;8.53;99.53
68474;BME280;55461;52.066;5.194;2023-02-04T09:30:53;103633.99999999999;;;8.61;99.47
68474;BME280;55461;52.066;5.194;2023-02-04T09:32:29;103633.99999999999;;;8.65;98.69
68474;BME280;55461;52.066;5.194;2023-02-04T09:34:05;103632.0;;;8.82;97.65
68474;BME280;55461;52.066;5.194;2023-02-04T09:37:17;103639.00000000001;;;8.55;98.54
68474;BME280;55461;52.066;5.194;2023-02-04T09:38:54;103631.0;;;8.74;97.87
68474;BME280;55461;52.066;5.194;2023-02-04T09:40:32;103626.0;;;8.73;97.63
68474;BME280;55461;52.066;5.194;2023-02-04T09:42:12;103632.0;;;8.84;97.62
68474;BME280;55461;52.066;5.194;2023-02-04T09:45:29;103630.0;;;8.96;96.17
68474;BME280;55461;52.066;5.194;2023-02-04T09:47:09;103636.99999999999;;;8.81;97.09
68474;BME280;55461;52.066;5.194;2023-02-04T09:48:49;103639.00000000001;;;8.86;96.48
68474;BME280;55461;52.066;5.194;2023-02-04T09:52:04;103642.0;;;8.94;96.14
68474;BME280;55461;52.066;5.194;2023-02-04T09:53:45;103639.00000000001;;;8.88;97.54
68474;BME280;55461;52.066;5.194;2023-02-04T09:55:26;103645.0;;;8.85;96.62
68474;BME280;55461;52.066;5.194;2023-02-04T09:57:12;103650.0;;;9.16;95.56
68474;BME280;55461;52.066;5.194;2023-02-04T10:00:29;103649.0;;;9.18;94.43
68474;BME280;55461;52.066;5.194;2023-02-04T10:02:19;103654.0;;;9.06;92.53
68474;BME280;55461;52.066;5.194;2023-02-04T10:04:00;103656.0;;;8.89;93.64
68474;BME280;55461;52.066;5.194;2023-02-04T10:05:37;103654.0;;;9.02;94.04
68474;BME280;55461;52.066;5.194;2023-02-04T10:08:54;103657.0;;;9.15;92.54
68474;BME280;55461;52.066;5.194;2023-02-04T10:10:32;103663.00000000001;;;8.97;92.99
68474;BME280;55461;52.066;5.194;2023-02-04T10:12:08;103659.99999999999;;;9.05;92.44
68474;BME280;55461;52.066;5.194;2023-02-04T10:13:46;103658.0;;;9.34;91.85
68474;BME280;55461;52.066;5.194;2023-02-04T10:17:00;103659.99999999999;;;9.43;89.7
68474;BME280;55461;52.066;5.194;2023-02-04T10:18:38;103665.00000000001;;;9.5;89.41
68474;BME280;55461;52.066;5.194;2023-02-04T10:20:16;103663.00000000001;;;9.38;88.69
68474;BME280;55461;52.066;5.194;2023-02-04T10:21:54;103658.99999999999;;;9.55;88.06
68474;BME280;55461;52.066;5.194;2023-02-04T10:25:11;103667.0;;;9.77;85.6
68474;BME280;55461;52.066;5.194;2023-02-04T10:26:48;103666.00000000001;;;9.46;85.19
68474;BME280;55461;52.066;5.194;2023-02-04T10:28:32;103667.0;;;9.49;85.31
68474;BME280;55461;52.066;5.194;2023-02-04T10:31:55;103671.0;;;9.56;84.7
68474;BME280;55461;52.066;5.194;2023-02-04T10:33:32;103669.0;;;9.57;85.37
68474;BME280;55461;52.066;5.194;2023-02-04T10:35:12;103670.0;;;9.56;85.47
68474;BME280;55461;52.066;5.194;2023-02-04T10:36:52;103672.0;;;9.63;84.96
68474;BME280;55461;52.066;5.194;2023-02-04T10:40:25;103674.0;;;9.48;85.75
68474;BME280;55461;52.066;5.194;2023-02-04T10:42:02;103671.0;;;9.65;86.49
68474;BME280;55461;52.066;5.194;2023-02-04T10:43:38;103670.0;;;9.81;85.98
68474;BME280;55461;52.066;5.194;2023-02-04T10:45:22;103668.0;;;9.82;83.67
68474;BME280;55461;52.066;5.194;2023-02-04T10:48:39;103668.0;;;9.97;83.94
68474;BME280;55461;52.066;5.194;2023-02-04T10:50:18;103666.00000000001;;;9.77;83.14
68474;BME280;55461;52.066;5.194;2023-02-04T10:51:56;103669.0;;;9.94;83.61
68474;BME280;55461;52.066;5.194;2023-02-04T10:54:37;103669.0;;;9.93;83.95